sensor_id;sensor_type;location;lat;lon;timestamp;P1;durP1;ratioP1;P2;durP2;ratioP2
76113;SDS011;64845;53.086;5.834;2022-12-18T00:02:11;72.03;;;30.02;;
76113;SDS011;64845;53.086;5.834;2022-12-18T00:04:36;73.95;;;31.67;;
76113;SDS011;64845;53.086;5.834;2022-12-18T00:07:02;72.13;;;29.45;;
76113;SDS011;64845;53.086;5.834;2022-12-18T00:09:27;70.70;;;29.88;;
76113;SDS011;64845;53.086;5.834;2022-12-18T00:11:53;78.38;;;30.08;;
76113;SDS011;64845;53.086;5.834;2022-12-18T00:14:18;64.18;;;28.10;;
76113;SDS011;64845;53.086;5.834;2022-12-18T00:16:44;71.03;;;30.35;;
76113;SDS011;64845;53.086;5.834;2022-12-18T00:19:12;63.60;;;27.55;;
76113;SDS011;64845;53.086;5.834;2022-12-18T00:21:40;74.72;;;29.05;;
76113;SDS011;64845;53.086;5.834;2022-12-18T00:24:06;71.72;;;27.83;;
76113;SDS011;64845;53.086;5.834;2022-12-18T00:26:33;74.90;;;31.67;;
76113;SDS011;64845;53.086;5.834;2022-12-18T00:29:03;79.75;;;31.80;;
76113;SDS011;64845;53.086;5.834;2022-12-18T00:31:31;60.03;;;25.98;;
76113;SDS011;64845;53.086;5.834;2022-12-18T00:33:57;71.60;;;30.10;;
76113;SDS011;64845;53.086;5.834;2022-12-18T00:36:24;75.72;;;29.50;;
76113;SDS011;64845;53.086;5.834;2022-12-18T00:38:52;88.43;;;30.25;;
76113;SDS011;64845;53.086;5.834;2022-12-18T00:41:19;69.40;;;29.30;;
76113;SDS011;64845;53.086;5.834;2022-12-18T00:44:03;66.70;;;27.75;;
76113;SDS011;64845;53.086;5.834;2022-12-18T00:46:30;69.80;;;26.40;;
76113;SDS011;64845;53.086;5.834;2022-12-18T00:48:56;69.10;;;27.15;;
76113;SDS011;64845;53.086;5.834;2022-12-18T00:51:22;65.93;;;26.33;;
76113;SDS011;64845;53.086;5.834;2022-12-18T00:53:48;67.30;;;28.27;;
76113;SDS011;64845;53.086;5.834;2022-12-18T00:56:13;71.47;;;28.88;;
76113;SDS011;64845;53.086;5.834;2022-12-18T00:58:39;66.30;;;28.08;;
76113;SDS011;64845;53.086;5.834;2022-12-18T01:01:05;64.70;;;27.17;;
76113;SDS011;64845;53.086;5.834;2022-12-18T01:03:30;73.78;;;27.00;;
76113;SDS011;64845;53.086;5.834;2022-12-18T01:05:56;72.60;;;29.15;;
76113;SDS011;64845;53.086;5.834;2022-12-18T01:08:21;78.85;;;29.55;;
76113;SDS011;64845;53.086;5.834;2022-12-18T01:10:47;68.22;;;28.08;;
76113;SDS011;64845;53.086;5.834;2022-12-18T01:13:12;69.28;;;27.45;;
76113;SDS011;64845;53.086;5.834;2022-12-18T01:15:38;64.00;;;25.20;;
76113;SDS011;64845;53.086;5.834;2022-12-18T01:18:03;72.68;;;28.83;;
76113;SDS011;64845;53.086;5.834;2022-12-18T01:20:29;56.17;;;21.83;;
76113;SDS011;64845;53.086;5.834;2022-12-18T01:22:54;76.47;;;27.90;;
76113;SDS011;64845;53.086;5.834;2022-12-18T01:25:19;63.95;;;25.77;;
76113;SDS011;64845;53.086;5.834;2022-12-18T01:27:45;77.57;;;27.77;;
76113;SDS011;64845;53.086;5.834;2022-12-18T01:30:10;70.28;;;26.10;;
76113;SDS011;64845;53.086;5.834;2022-12-18T01:32:36;62.80;;;26.33;;
76113;SDS011;64845;53.086;5.834;2022-12-18T01:35:01;62.60;;;25.38;;
76113;SDS011;64845;53.086;5.834;2022-12-18T01:37:27;64.57;;;26.17;;
76113;SDS011;64845;53.086;5.834;2022-12-18T01:39:52;67.95;;;25.42;;
76113;SDS011;64845;53.086;5.834;2022-12-18T01:42:19;62.92;;;24.77;;
76113;SDS011;64845;53.086;5.834;2022-12-18T01:47:30;60.75;;;24.83;;
76113;SDS011;64845;53.086;5.834;2022-12-18T01:52:42;64.50;;;24.98;;
76113;SDS011;64845;53.086;5.834;2022-12-18T01:55:11;68.20;;;27.55;;
76113;SDS011;64845;53.086;5.834;2022-12-18T01:57:39;71.65;;;27.30;;
76113;SDS011;64845;53.086;5.834;2022-12-18T02:00:10;61.70;;;25.83;;
76113;SDS011;64845;53.086;5.834;2022-12-18T02:02:38;71.63;;;27.05;;
76113;SDS011;64845;53.086;5.834;2022-12-18T02:05:04;68.63;;;25.20;;
76113;SDS011;64845;53.086;5.834;2022-12-18T02:10:27;59.63;;;25.30;;
76113;SDS011;64845;53.086;5.834;2022-12-18T02:12:57;58.88;;;25.63;;
76113;SDS011;64845;53.086;5.834;2022-12-18T02:19:13;68.85;;;25.15;;
76113;SDS011;64845;53.086;5.834;2022-12-18T02:24:18;63.42;;;24.95;;
76113;SDS011;64845;53.086;5.834;2022-12-18T02:26:48;59.17;;;22.60;;
76113;SDS011;64845;53.086;5.834;2022-12-18T02:29:22;59.63;;;24.52;;
76113;SDS011;64845;53.086;5.834;2022-12-18T02:31:53;66.60;;;25.15;;
76113;SDS011;64845;53.086;5.834;2022-12-18T02:34:22;65.97;;;24.00;;
76113;SDS011;64845;53.086;5.834;2022-12-18T02:36:51;66.32;;;26.30;;
76113;SDS011;64845;53.086;5.834;2022-12-18T02:39:19;65.95;;;25.80;;
76113;SDS011;64845;53.086;5.834;2022-12-18T02:41:47;63.42;;;24.75;;
76113;SDS011;64845;53.086;5.834;2022-12-18T02:44:13;67.78;;;25.77;;
76113;SDS011;64845;53.086;5.834;2022-12-18T02:46:39;68.05;;;25.38;;
76113;SDS011;64845;53.086;5.834;2022-12-18T02:57:20;57.33;;;23.55;;
76113;SDS011;64845;53.086;5.834;2022-12-18T03:05:11;63.00;;;22.70;;
76113;SDS011;64845;53.086;5.834;2022-12-18T03:07:53;63.38;;;23.70;;
76113;SDS011;64845;53.086;5.834;2022-12-18T03:10:29;63.83;;;24.08;;
76113;SDS011;64845;53.086;5.834;2022-12-18T03:13:09;68.50;;;24.60;;
76113;SDS011;64845;53.086;5.834;2022-12-18T03:15:40;66.45;;;25.20;;
76113;SDS011;64845;53.086;5.834;2022-12-18T03:18:10;66.80;;;24.70;;
76113;SDS011;64845;53.086;5.834;2022-12-18T03:20:41;63.45;;;23.88;;
76113;SDS011;64845;53.086;5.834;2022-12-18T03:23:09;60.40;;;24.08;;
76113;SDS011;64845;53.086;5.834;2022-12-18T03:25:39;65.63;;;24.70;;
76113;SDS011;64845;53.086;5.834;2022-12-18T03:28:09;63.58;;;24.63;;
76113;SDS011;64845;53.086;5.834;2022-12-18T03:30:39;70.90;;;25.38;;
76113;SDS011;64845;53.086;5.834;2022-12-18T03:33:19;66.93;;;25.80;;
76113;SDS011;64845;53.086;5.834;2022-12-18T03:35:52;68.82;;;24.65;;
76113;SDS011;64845;53.086;5.834;2022-12-18T03:38:17;72.25;;;25.48;;
76113;SDS011;64845;53.086;5.834;2022-12-18T03:40:45;67.72;;;26.25;;
76113;SDS011;64845;53.086;5.834;2022-12-18T03:43:23;68.35;;;25.92;;
76113;SDS011;64845;53.086;5.834;2022-12-18T03:49:05;63.80;;;25.25;;
76113;SDS011;64845;53.086;5.834;2022-12-18T03:51:42;70.07;;;25.02;;
76113;SDS011;64845;53.086;5.834;2022-12-18T03:54:15;67.25;;;25.90;;
76113;SDS011;64845;53.086;5.834;2022-12-18T03:56:44;66.57;;;25.20;;
76113;SDS011;64845;53.086;5.834;2022-12-18T03:59:13;66.10;;;25.17;;
76113;SDS011;64845;53.086;5.834;2022-12-18T04:01:42;68.05;;;26.55;;
76113;SDS011;64845;53.086;5.834;2022-12-18T04:04:12;65.70;;;25.42;;
76113;SDS011;64845;53.086;5.834;2022-12-18T04:06:40;66.65;;;25.95;;
76113;SDS011;64845;53.086;5.834;2022-12-18T04:09:07;65.10;;;25.80;;
76113;SDS011;64845;53.086;5.834;2022-12-18T04:11:33;65.65;;;25.77;;
76113;SDS011;64845;53.086;5.834;2022-12-18T04:13:58;65.18;;;25.13;;
76113;SDS011;64845;53.086;5.834;2022-12-18T04:16:24;71.13;;;25.95;;
76113;SDS011;64845;53.086;5.834;2022-12-18T04:18:50;62.40;;;24.48;;
76113;SDS011;64845;53.086;5.834;2022-12-18T04:21:17;64.70;;;24.02;;
76113;SDS011;64845;53.086;5.834;2022-12-18T04:23:43;61.40;;;25.25;;
76113;SDS011;64845;53.086;5.834;2022-12-18T04:26:08;62.05;;;23.45;;
76113;SDS011;64845;53.086;5.834;2022-12-18T04:28:33;65.15;;;24.58;;
76113;SDS011;64845;53.086;5.834;2022-12-18T04:30:59;63.60;;;23.92;;
76113;SDS011;64845;53.086;5.834;2022-12-18T04:33:24;66.93;;;25.60;;
76113;SDS011;64845;53.086;5.834;2022-12-18T04:35:49;65.30;;;24.67;;
76113;SDS011;64845;53.086;5.834;2022-12-18T04:38:15;58.80;;;23.17;;
76113;SDS011;64845;53.086;5.834;2022-12-18T04:40:40;57.00;;;22.48;;
76113;SDS011;64845;53.086;5.834;2022-12-18T04:43:06;62.40;;;23.92;;
76113;SDS011;64845;53.086;5.834;2022-12-18T04:45:31;63.97;;;23.95;;
76113;SDS011;64845;53.086;5.834;2022-12-18T04:47:58;62.92;;;23.77;;
76113;SDS011;64845;53.086;5.834;2022-12-18T04:50:24;58.53;;;23.85;;
76113;SDS011;64845;53.086;5.834;2022-12-18T04:52:50;66.38;;;23.40;;
76113;SDS011;64845;53.086;5.834;2022-12-18T04:55:15;59.80;;;23.42;;
76113;SDS011;64845;53.086;5.834;2022-12-18T04:57:41;63.03;;;24.00;;
76113;SDS011;64845;53.086;5.834;2022-12-18T05:00:06;63.72;;;21.83;;
76113;SDS011;64845;53.086;5.834;2022-12-18T05:02:32;54.58;;;22.50;;
76113;SDS011;64845;53.086;5.834;2022-12-18T05:04:58;57.22;;;22.50;;
76113;SDS011;64845;53.086;5.834;2022-12-18T05:07:23;56.85;;;21.55;;
76113;SDS011;64845;53.086;5.834;2022-12-18T05:09:48;55.53;;;22.35;;
76113;SDS011;64845;53.086;5.834;2022-12-18T05:12:14;58.90;;;23.30;;
76113;SDS011;64845;53.086;5.834;2022-12-18T05:14:39;57.42;;;22.10;;
76113;SDS011;64845;53.086;5.834;2022-12-18T05:17:04;53.97;;;21.35;;
76113;SDS011;64845;53.086;5.834;2022-12-18T05:19:30;51.13;;;21.15;;
76113;SDS011;64845;53.086;5.834;2022-12-18T05:21:55;53.20;;;21.65;;
76113;SDS011;64845;53.086;5.834;2022-12-18T05:24:20;56.20;;;22.30;;
76113;SDS011;64845;53.086;5.834;2022-12-18T05:26:46;49.53;;;19.85;;
76113;SDS011;64845;53.086;5.834;2022-12-18T05:29:11;53.55;;;21.00;;
76113;SDS011;64845;53.086;5.834;2022-12-18T05:31:37;53.58;;;20.90;;
76113;SDS011;64845;53.086;5.834;2022-12-18T05:34:03;55.85;;;20.23;;
76113;SDS011;64845;53.086;5.834;2022-12-18T05:36:29;48.17;;;20.45;;
76113;SDS011;64845;53.086;5.834;2022-12-18T05:38:54;47.03;;;21.08;;
76113;SDS011;64845;53.086;5.834;2022-12-18T05:41:20;63.80;;;21.65;;
76113;SDS011;64845;53.086;5.834;2022-12-18T05:43:45;54.30;;;20.85;;
76113;SDS011;64845;53.086;5.834;2022-12-18T05:46:12;53.00;;;20.88;;
76113;SDS011;64845;53.086;5.834;2022-12-18T05:48:40;46.85;;;20.13;;
76113;SDS011;64845;53.086;5.834;2022-12-18T05:51:06;47.45;;;20.45;;
76113;SDS011;64845;53.086;5.834;2022-12-18T05:53:33;44.17;;;19.10;;
76113;SDS011;64845;53.086;5.834;2022-12-18T05:56:03;42.83;;;20.17;;
76113;SDS011;64845;53.086;5.834;2022-12-18T06:00:56;42.80;;;18.17;;
76113;SDS011;64845;53.086;5.834;2022-12-18T06:03:22;42.92;;;18.95;;
76113;SDS011;64845;53.086;5.834;2022-12-18T06:05:47;50.95;;;20.60;;
76113;SDS011;64845;53.086;5.834;2022-12-18T06:08:12;47.65;;;18.42;;
76113;SDS011;64845;53.086;5.834;2022-12-18T06:10:38;51.25;;;19.45;;
76113;SDS011;64845;53.086;5.834;2022-12-18T06:13:04;43.88;;;19.67;;
76113;SDS011;64845;53.086;5.834;2022-12-18T06:15:30;45.83;;;18.77;;
76113;SDS011;64845;53.086;5.834;2022-12-18T06:17:56;41.75;;;18.52;;
76113;SDS011;64845;53.086;5.834;2022-12-18T06:20:22;45.25;;;18.30;;
76113;SDS011;64845;53.086;5.834;2022-12-18T06:22:47;44.78;;;18.98;;
76113;SDS011;64845;53.086;5.834;2022-12-18T06:25:13;48.55;;;18.73;;
76113;SDS011;64845;53.086;5.834;2022-12-18T06:27:38;40.97;;;17.90;;
76113;SDS011;64845;53.086;5.834;2022-12-18T06:30:04;38.88;;;18.08;;
76113;SDS011;64845;53.086;5.834;2022-12-18T06:32:30;43.65;;;17.73;;
76113;SDS011;64845;53.086;5.834;2022-12-18T06:34:55;49.55;;;18.10;;
76113;SDS011;64845;53.086;5.834;2022-12-18T06:37:21;43.80;;;17.20;;
76113;SDS011;64845;53.086;5.834;2022-12-18T06:39:50;42.37;;;17.00;;
76113;SDS011;64845;53.086;5.834;2022-12-18T06:42:17;37.78;;;16.55;;
76113;SDS011;64845;53.086;5.834;2022-12-18T06:44:42;38.78;;;16.40;;
76113;SDS011;64845;53.086;5.834;2022-12-18T06:47:08;42.28;;;17.63;;
76113;SDS011;64845;53.086;5.834;2022-12-18T06:49:34;42.90;;;16.90;;
76113;SDS011;64845;53.086;5.834;2022-12-18T06:51:59;43.92;;;18.27;;
76113;SDS011;64845;53.086;5.834;2022-12-18T06:54:24;48.33;;;17.83;;
76113;SDS011;64845;53.086;5.834;2022-12-18T06:56:50;41.97;;;18.02;;
76113;SDS011;64845;53.086;5.834;2022-12-18T06:59:15;42.50;;;17.77;;
76113;SDS011;64845;53.086;5.834;2022-12-18T07:01:40;42.45;;;17.52;;
76113;SDS011;64845;53.086;5.834;2022-12-18T07:04:06;40.80;;;17.50;;
76113;SDS011;64845;53.086;5.834;2022-12-18T07:06:31;43.78;;;17.20;;
76113;SDS011;64845;53.086;5.834;2022-12-18T07:08:57;37.75;;;16.40;;
76113;SDS011;64845;53.086;5.834;2022-12-18T07:11:22;40.25;;;15.52;;
76113;SDS011;64845;53.086;5.834;2022-12-18T07:13:48;33.25;;;15.25;;
76113;SDS011;64845;53.086;5.834;2022-12-18T07:16:14;36.50;;;16.63;;
76113;SDS011;64845;53.086;5.834;2022-12-18T07:18:49;44.28;;;16.60;;
76113;SDS011;64845;53.086;5.834;2022-12-18T07:21:47;33.17;;;14.93;;
76113;SDS011;64845;53.086;5.834;2022-12-18T07:24:14;35.67;;;15.50;;
76113;SDS011;64845;53.086;5.834;2022-12-18T07:26:40;39.53;;;15.73;;
76113;SDS011;64845;53.086;5.834;2022-12-18T07:29:05;31.17;;;15.02;;
76113;SDS011;64845;53.086;5.834;2022-12-18T07:31:30;42.47;;;16.38;;
76113;SDS011;64845;53.086;5.834;2022-12-18T07:33:56;42.55;;;15.65;;
76113;SDS011;64845;53.086;5.834;2022-12-18T07:36:21;35.10;;;14.18;;
76113;SDS011;64845;53.086;5.834;2022-12-18T07:38:48;32.33;;;13.90;;
76113;SDS011;64845;53.086;5.834;2022-12-18T07:41:14;39.33;;;14.82;;
76113;SDS011;64845;53.086;5.834;2022-12-18T07:43:41;30.33;;;14.27;;
76113;SDS011;64845;53.086;5.834;2022-12-18T07:46:07;32.22;;;13.95;;
76113;SDS011;64845;53.086;5.834;2022-12-18T07:48:34;34.92;;;14.88;;
76113;SDS011;64845;53.086;5.834;2022-12-18T07:51:00;31.70;;;14.07;;
76113;SDS011;64845;53.086;5.834;2022-12-18T07:53:26;38.42;;;14.40;;
76113;SDS011;64845;53.086;5.834;2022-12-18T07:55:55;31.52;;;13.93;;
76113;SDS011;64845;53.086;5.834;2022-12-18T07:58:24;34.80;;;14.75;;
76113;SDS011;64845;53.086;5.834;2022-12-18T08:00:50;30.30;;;15.05;;
76113;SDS011;64845;53.086;5.834;2022-12-18T08:03:15;35.40;;;15.30;;
76113;SDS011;64845;53.086;5.834;2022-12-18T08:05:40;29.23;;;13.30;;
76113;SDS011;64845;53.086;5.834;2022-12-18T08:08:06;31.67;;;13.05;;
76113;SDS011;64845;53.086;5.834;2022-12-18T08:10:31;31.85;;;13.68;;
76113;SDS011;64845;53.086;5.834;2022-12-18T08:12:56;33.53;;;15.10;;
76113;SDS011;64845;53.086;5.834;2022-12-18T08:15:22;36.50;;;15.35;;
76113;SDS011;64845;53.086;5.834;2022-12-18T08:17:47;32.47;;;13.60;;
76113;SDS011;64845;53.086;5.834;2022-12-18T08:20:13;34.08;;;14.30;;
76113;SDS011;64845;53.086;5.834;2022-12-18T08:22:40;33.10;;;13.98;;
76113;SDS011;64845;53.086;5.834;2022-12-18T08:25:06;30.42;;;13.50;;
76113;SDS011;64845;53.086;5.834;2022-12-18T08:27:32;30.73;;;13.38;;
76113;SDS011;64845;53.086;5.834;2022-12-18T08:29:57;29.35;;;13.65;;
76113;SDS011;64845;53.086;5.834;2022-12-18T08:32:23;31.48;;;13.60;;
76113;SDS011;64845;53.086;5.834;2022-12-18T08:34:49;36.63;;;14.85;;
76113;SDS011;64845;53.086;5.834;2022-12-18T08:37:15;30.80;;;13.25;;
76113;SDS011;64845;53.086;5.834;2022-12-18T08:39:40;31.63;;;13.30;;
76113;SDS011;64845;53.086;5.834;2022-12-18T08:42:05;30.48;;;13.23;;
76113;SDS011;64845;53.086;5.834;2022-12-18T08:44:49;27.45;;;13.13;;
76113;SDS011;64845;53.086;5.834;2022-12-18T08:47:15;29.17;;;13.32;;
76113;SDS011;64845;53.086;5.834;2022-12-18T08:49:40;25.23;;;12.52;;
76113;SDS011;64845;53.086;5.834;2022-12-18T08:52:05;26.55;;;12.40;;
76113;SDS011;64845;53.086;5.834;2022-12-18T08:54:31;22.88;;;12.43;;
76113;SDS011;64845;53.086;5.834;2022-12-18T08:56:56;35.75;;;13.77;;
76113;SDS011;64845;53.086;5.834;2022-12-18T08:59:22;29.67;;;12.85;;
76113;SDS011;64845;53.086;5.834;2022-12-18T09:01:48;28.77;;;12.18;;
76113;SDS011;64845;53.086;5.834;2022-12-18T09:04:13;27.55;;;12.82;;
76113;SDS011;64845;53.086;5.834;2022-12-18T09:06:39;29.13;;;13.48;;
76113;SDS011;64845;53.086;5.834;2022-12-18T09:09:04;27.90;;;12.70;;
76113;SDS011;64845;53.086;5.834;2022-12-18T09:11:30;28.40;;;11.95;;
76113;SDS011;64845;53.086;5.834;2022-12-18T09:13:57;24.55;;;12.00;;
76113;SDS011;64845;53.086;5.834;2022-12-18T09:16:23;29.38;;;12.32;;
76113;SDS011;64845;53.086;5.834;2022-12-18T09:18:50;24.33;;;12.45;;
76113;SDS011;64845;53.086;5.834;2022-12-18T09:21:17;26.88;;;12.05;;
76113;SDS011;64845;53.086;5.834;2022-12-18T09:23:48;31.00;;;12.27;;
76113;SDS011;64845;53.086;5.834;2022-12-18T09:26:18;23.73;;;11.13;;
76113;SDS011;64845;53.086;5.834;2022-12-18T09:28:44;24.10;;;10.98;;
76113;SDS011;64845;53.086;5.834;2022-12-18T09:31:10;25.33;;;12.60;;
76113;SDS011;64845;53.086;5.834;2022-12-18T09:33:37;24.25;;;10.32;;
76113;SDS011;64845;53.086;5.834;2022-12-18T09:36:03;21.05;;;11.13;;
76113;SDS011;64845;53.086;5.834;2022-12-18T09:38:31;23.13;;;10.98;;
76113;SDS011;64845;53.086;5.834;2022-12-18T09:40:59;27.77;;;10.57;;
76113;SDS011;64845;53.086;5.834;2022-12-18T09:43:37;23.20;;;10.80;;
76113;SDS011;64845;53.086;5.834;2022-12-18T09:46:11;24.63;;;11.25;;
76113;SDS011;64845;53.086;5.834;2022-12-18T09:48:44;24.38;;;10.90;;
76113;SDS011;64845;53.086;5.834;2022-12-18T09:54:38;27.73;;;11.30;;
76113;SDS011;64845;53.086;5.834;2022-12-18T09:57:05;20.27;;;9.80;;
76113;SDS011;64845;53.086;5.834;2022-12-18T09:59:32;21.40;;;11.00;;
76113;SDS011;64845;53.086;5.834;2022-12-18T10:02:13;22.92;;;10.48;;
76113;SDS011;64845;53.086;5.834;2022-12-18T10:04:41;25.23;;;11.07;;
76113;SDS011;64845;53.086;5.834;2022-12-18T10:07:15;24.80;;;11.32;;
76113;SDS011;64845;53.086;5.834;2022-12-18T10:15:30;23.63;;;10.20;;
76113;SDS011;64845;53.086;5.834;2022-12-18T10:20:43;22.27;;;10.52;;
76113;SDS011;64845;53.086;5.834;2022-12-18T10:28:20;18.02;;;9.90;;
76113;SDS011;64845;53.086;5.834;2022-12-18T10:30:48;17.48;;;9.30;;
76113;SDS011;64845;53.086;5.834;2022-12-18T10:33:13;18.75;;;9.65;;
76113;SDS011;64845;53.086;5.834;2022-12-18T10:35:42;18.90;;;9.52;;
76113;SDS011;64845;53.086;5.834;2022-12-18T10:40:48;16.38;;;8.93;;
76113;SDS011;64845;53.086;5.834;2022-12-18T10:43:23;17.77;;;9.32;;
76113;SDS011;64845;53.086;5.834;2022-12-18T10:46:00;14.85;;;8.60;;
76113;SDS011;64845;53.086;5.834;2022-12-18T10:48:28;16.80;;;8.82;;
76113;SDS011;64845;53.086;5.834;2022-12-18T10:50:56;16.92;;;8.85;;
76113;SDS011;64845;53.086;5.834;2022-12-18T10:53:25;16.77;;;8.65;;
76113;SDS011;64845;53.086;5.834;2022-12-18T10:55:53;17.17;;;8.60;;
76113;SDS011;64845;53.086;5.834;2022-12-18T11:08:37;16.13;;;7.85;;
76113;SDS011;64845;53.086;5.834;2022-12-18T11:11:04;12.73;;;8.07;;
76113;SDS011;64845;53.086;5.834;2022-12-18T11:13:39;15.07;;;7.82;;
76113;SDS011;64845;53.086;5.834;2022-12-18T11:16:05;13.02;;;7.32;;
76113;SDS011;64845;53.086;5.834;2022-12-18T11:18:34;13.10;;;7.55;;
76113;SDS011;64845;53.086;5.834;2022-12-18T11:21:08;13.77;;;8.18;;
76113;SDS011;64845;53.086;5.834;2022-12-18T11:23:34;14.85;;;8.48;;
76113;SDS011;64845;53.086;5.834;2022-12-18T11:26:02;14.35;;;7.93;;
76113;SDS011;64845;53.086;5.834;2022-12-18T11:28:35;13.77;;;8.18;;
76113;SDS011;64845;53.086;5.834;2022-12-18T11:31:26;16.35;;;8.30;;
76113;SDS011;64845;53.086;5.834;2022-12-18T11:34:04;17.13;;;8.63;;
76113;SDS011;64845;53.086;5.834;2022-12-18T11:36:38;18.40;;;8.23;;
76113;SDS011;64845;53.086;5.834;2022-12-18T11:39:31;16.08;;;8.73;;
76113;SDS011;64845;53.086;5.834;2022-12-18T11:42:00;19.35;;;9.35;;
76113;SDS011;64845;53.086;5.834;2022-12-18T11:44:47;17.70;;;8.70;;
76113;SDS011;64845;53.086;5.834;2022-12-18T11:47:31;16.08;;;8.60;;
76113;SDS011;64845;53.086;5.834;2022-12-18T11:50:14;16.05;;;8.48;;
76113;SDS011;64845;53.086;5.834;2022-12-18T11:52:43;14.98;;;7.75;;
76113;SDS011;64845;53.086;5.834;2022-12-18T11:58:01;14.00;;;8.50;;
76113;SDS011;64845;53.086;5.834;2022-12-18T12:01:31;14.05;;;8.98;;
76113;SDS011;64845;53.086;5.834;2022-12-18T12:15:22;13.98;;;7.75;;
76113;SDS011;64845;53.086;5.834;2022-12-18T12:20:25;13.13;;;6.97;;
76113;SDS011;64845;53.086;5.834;2022-12-18T12:23:01;13.15;;;7.20;;
76113;SDS011;64845;53.086;5.834;2022-12-18T12:28:20;12.27;;;6.82;;
76113;SDS011;64845;53.086;5.834;2022-12-18T12:36:29;12.07;;;7.27;;
76113;SDS011;64845;53.086;5.834;2022-12-18T12:39:05;12.43;;;7.32;;
76113;SDS011;64845;53.086;5.834;2022-12-18T12:41:35;15.32;;;8.65;;
76113;SDS011;64845;53.086;5.834;2022-12-18T12:44:30;13.57;;;7.85;;
76113;SDS011;64845;53.086;5.834;2022-12-18T12:47:00;12.77;;;7.93;;
76113;SDS011;64845;53.086;5.834;2022-12-18T12:49:31;13.50;;;7.00;;
76113;SDS011;64845;53.086;5.834;2022-12-18T12:54:32;14.32;;;7.55;;
76113;SDS011;64845;53.086;5.834;2022-12-18T12:57:01;14.88;;;7.82;;
76113;SDS011;64845;53.086;5.834;2022-12-18T12:59:35;14.60;;;7.82;;
76113;SDS011;64845;53.086;5.834;2022-12-18T13:07:50;11.07;;;6.40;;
76113;SDS011;64845;53.086;5.834;2022-12-18T13:16:04;12.23;;;7.15;;
76113;SDS011;64845;53.086;5.834;2022-12-18T13:18:13;11.13;;;6.50;;
76113;SDS011;64845;53.086;5.834;2022-12-18T13:20:46;12.48;;;6.90;;
76113;SDS011;64845;53.086;5.834;2022-12-18T13:23:27;12.20;;;6.22;;
76113;SDS011;64845;53.086;5.834;2022-12-18T13:34:28;15.70;;;7.78;;
76113;SDS011;64845;53.086;5.834;2022-12-18T13:37:42;15.53;;;7.30;;
76113;SDS011;64845;53.086;5.834;2022-12-18T13:39:56;11.38;;;6.53;;
76113;SDS011;64845;53.086;5.834;2022-12-18T13:42:31;12.20;;;6.80;;
76113;SDS011;64845;53.086;5.834;2022-12-18T13:45:37;12.50;;;6.68;;
76113;SDS011;64845;53.086;5.834;2022-12-18T13:48:10;12.20;;;6.65;;
76113;SDS011;64845;53.086;5.834;2022-12-18T13:50:41;12.48;;;6.32;;
76113;SDS011;64845;53.086;5.834;2022-12-18T13:53:11;11.90;;;6.72;;
76113;SDS011;64845;53.086;5.834;2022-12-18T13:55:45;13.85;;;6.93;;
76113;SDS011;64845;53.086;5.834;2022-12-18T13:58:11;14.43;;;7.22;;
76113;SDS011;64845;53.086;5.834;2022-12-18T14:00:40;14.60;;;6.60;;
76113;SDS011;64845;53.086;5.834;2022-12-18T14:03:23;13.63;;;7.10;;
76113;SDS011;64845;53.086;5.834;2022-12-18T14:05:54;13.25;;;6.43;;
76113;SDS011;64845;53.086;5.834;2022-12-18T14:08:21;12.90;;;6.70;;
76113;SDS011;64845;53.086;5.834;2022-12-18T14:10:48;14.40;;;6.40;;
76113;SDS011;64845;53.086;5.834;2022-12-18T14:13:35;11.73;;;6.40;;
76113;SDS011;64845;53.086;5.834;2022-12-18T14:16:04;11.07;;;6.03;;
76113;SDS011;64845;53.086;5.834;2022-12-18T14:21:14;11.38;;;6.65;;
76113;SDS011;64845;53.086;5.834;2022-12-18T14:23:44;11.85;;;6.68;;
76113;SDS011;64845;53.086;5.834;2022-12-18T14:26:23;10.65;;;6.05;;
76113;SDS011;64845;53.086;5.834;2022-12-18T14:28:57;10.43;;;6.03;;
76113;SDS011;64845;53.086;5.834;2022-12-18T14:31:29;9.98;;;5.70;;
76113;SDS011;64845;53.086;5.834;2022-12-18T14:33:55;20.33;;;6.30;;
76113;SDS011;64845;53.086;5.834;2022-12-18T14:36:25;11.10;;;5.97;;
76113;SDS011;64845;53.086;5.834;2022-12-18T14:38:53;10.65;;;6.05;;
76113;SDS011;64845;53.086;5.834;2022-12-18T14:41:23;8.10;;;5.47;;
76113;SDS011;64845;53.086;5.834;2022-12-18T14:43:50;9.02;;;5.00;;
76113;SDS011;64845;53.086;5.834;2022-12-18T14:49:03;8.52;;;5.10;;
76113;SDS011;64845;53.086;5.834;2022-12-18T14:51:33;9.05;;;4.80;;
76113;SDS011;64845;53.086;5.834;2022-12-18T14:54:00;10.68;;;4.97;;
76113;SDS011;64845;53.086;5.834;2022-12-18T14:56:36;8.93;;;5.38;;
76113;SDS011;64845;53.086;5.834;2022-12-18T14:59:22;11.82;;;5.10;;
76113;SDS011;64845;53.086;5.834;2022-12-18T15:01:59;10.25;;;4.80;;
76113;SDS011;64845;53.086;5.834;2022-12-18T15:09:36;11.77;;;5.60;;
76113;SDS011;64845;53.086;5.834;2022-12-18T15:12:03;8.27;;;4.85;;
76113;SDS011;64845;53.086;5.834;2022-12-18T15:14:41;9.68;;;4.22;;
76113;SDS011;64845;53.086;5.834;2022-12-18T15:17:27;10.25;;;5.05;;
76113;SDS011;64845;53.086;5.834;2022-12-18T15:19:53;11.73;;;5.38;;
76113;SDS011;64845;53.086;5.834;2022-12-18T15:22:34;9.02;;;5.55;;
76113;SDS011;64845;53.086;5.834;2022-12-18T15:25:01;9.02;;;5.60;;
76113;SDS011;64845;53.086;5.834;2022-12-18T15:27:30;11.38;;;5.05;;
76113;SDS011;64845;53.086;5.834;2022-12-18T15:32:32;7.47;;;4.78;;
76113;SDS011;64845;53.086;5.834;2022-12-18T15:37:37;7.25;;;4.80;;
76113;SDS011;64845;53.086;5.834;2022-12-18T15:40:04;6.72;;;4.68;;
76113;SDS011;64845;53.086;5.834;2022-12-18T15:42:30;8.98;;;5.03;;
76113;SDS011;64845;53.086;5.834;2022-12-18T15:45:14;8.63;;;5.72;;
76113;SDS011;64845;53.086;5.834;2022-12-18T15:47:40;8.82;;;4.88;;
76113;SDS011;64845;53.086;5.834;2022-12-18T15:50:09;11.38;;;5.43;;
76113;SDS011;64845;53.086;5.834;2022-12-18T15:52:41;9.90;;;4.97;;
76113;SDS011;64845;53.086;5.834;2022-12-18T15:55:10;8.13;;;5.10;;
76113;SDS011;64845;53.086;5.834;2022-12-18T15:57:56;9.93;;;4.88;;
76113;SDS011;64845;53.086;5.834;2022-12-18T16:00:21;10.70;;;5.22;;
76113;SDS011;64845;53.086;5.834;2022-12-18T16:02:47;8.20;;;5.10;;
76113;SDS011;64845;53.086;5.834;2022-12-18T16:05:16;9.35;;;5.43;;
76113;SDS011;64845;53.086;5.834;2022-12-18T16:07:43;7.50;;;4.80;;
76113;SDS011;64845;53.086;5.834;2022-12-18T16:10:09;7.80;;;4.25;;
76113;SDS011;64845;53.086;5.834;2022-12-18T16:12:35;8.18;;;4.85;;
76113;SDS011;64845;53.086;5.834;2022-12-18T16:15:01;8.05;;;5.07;;
76113;SDS011;64845;53.086;5.834;2022-12-18T16:17:27;11.25;;;4.55;;
76113;SDS011;64845;53.086;5.834;2022-12-18T16:19:53;8.77;;;5.10;;
76113;SDS011;64845;53.086;5.834;2022-12-18T16:22:22;21.63;;;9.90;;
76113;SDS011;64845;53.086;5.834;2022-12-18T16:24:52;16.17;;;6.90;;
76113;SDS011;64845;53.086;5.834;2022-12-18T16:27:20;7.97;;;4.60;;
76113;SDS011;64845;53.086;5.834;2022-12-18T16:29:46;8.45;;;4.82;;
76113;SDS011;64845;53.086;5.834;2022-12-18T16:32:15;10.40;;;5.18;;
76113;SDS011;64845;53.086;5.834;2022-12-18T16:34:43;8.63;;;4.90;;
76113;SDS011;64845;53.086;5.834;2022-12-18T16:37:09;9.70;;;4.80;;
76113;SDS011;64845;53.086;5.834;2022-12-18T16:39:37;8.55;;;4.63;;
76113;SDS011;64845;53.086;5.834;2022-12-18T16:42:04;10.82;;;5.90;;
76113;SDS011;64845;53.086;5.834;2022-12-18T16:44:32;25.27;;;9.57;;